createdAt,value
2018-07-17T00:00:34.232Z,3.37
2018-07-17T00:03:01.740Z,2.63
2018-07-17T00:05:29.807Z,3.27
2018-07-17T00:07:57.847Z,3.30
2018-07-17T00:10:25.401Z,2.77
2018-07-17T00:12:53.526Z,2.30
2018-07-17T00:15:20.912Z,3.00
2018-07-17T00:17:49.196Z,2.87
2018-07-17T00:20:17.100Z,3.30
2018-07-17T00:22:45.359Z,3.57
2018-07-17T00:25:12.871Z,2.87
2018-07-17T00:27:40.916Z,3.10
2018-07-17T00:30:09.016Z,2.80
2018-07-17T00:32:36.552Z,2.73
2018-07-17T00:35:04.836Z,2.70
2018-07-17T00:37:32.385Z,2.13
2018-07-17T00:39:59.899Z,2.47
2018-07-17T00:42:28.260Z,2.17
2018-07-17T00:44:56.116Z,3.20
2018-07-17T00:47:23.980Z,2.70
2018-07-17T00:49:51.583Z,2.30
2018-07-17T00:52:19.108Z,3.30
2018-07-17T00:54:46.652Z,4.23
2018-07-17T00:57:14.779Z,3.50
2018-07-17T00:59:42.815Z,3.87
2018-07-17T01:02:15.969Z,3.73
2018-07-17T01:04:49.295Z,3.60
2018-07-17T01:07:23.516Z,2.83
2018-07-17T01:09:57.842Z,2.90
2018-07-17T01:12:25.497Z,3.33
2018-07-17T01:14:59.688Z,3.50
2018-07-17T01:17:28.198Z,2.97
2018-07-17T01:19:56.112Z,3.90
2018-07-17T01:22:23.693Z,3.30
2018-07-17T01:24:51.828Z,2.97
2018-07-17T01:27:19.638Z,2.83
2018-07-17T01:29:47.136Z,2.80
2018-07-17T01:32:15.464Z,2.83
2018-07-17T01:34:43.013Z,2.67
2018-07-17T01:37:10.933Z,3.13
2018-07-17T01:39:38.431Z,3.53
2018-07-17T01:42:06.668Z,3.10
2018-07-17T01:44:34.884Z,3.70
2018-07-17T01:47:02.748Z,3.70
2018-07-17T01:49:30.236Z,3.20
2018-07-17T01:51:57.739Z,2.40
2018-07-17T01:54:25.852Z,2.80
2018-07-17T01:56:53.755Z,3.40
2018-07-17T01:59:21.767Z,3.33
2018-07-17T02:01:49.559Z,3.10
2018-07-17T02:04:17.087Z,3.30
2018-07-17T02:06:45.120Z,2.87
2018-07-17T02:09:12.999Z,3.90
2018-07-17T02:11:41.273Z,3.10
2018-07-17T02:14:09.268Z,3.47
2018-07-17T02:16:37.425Z,3.80
2018-07-17T02:19:05.812Z,2.60
2018-07-17T02:21:33.319Z,2.50
2018-07-17T02:24:00.837Z,2.57
2018-07-17T02:26:28.767Z,3.53
2018-07-17T02:28:56.293Z,3.60
2018-07-17T02:31:24.454Z,4.00
2018-07-17T02:33:51.929Z,3.13
2018-07-17T02:36:19.527Z,3.20
2018-07-17T02:38:47.596Z,2.37
2018-07-17T02:41:15.119Z,2.40
2018-07-17T02:43:42.995Z,4.00
2018-07-17T02:46:10.577Z,3.60
2018-07-17T02:48:38.084Z,4.50
2018-07-17T02:51:05.671Z,3.60
2018-07-17T02:53:33.607Z,4.17
2018-07-17T02:56:01.127Z,3.40
2018-07-17T02:58:28.628Z,2.73
2018-07-17T03:00:56.862Z,2.60
2018-07-17T03:03:24.356Z,2.77
2018-07-17T03:05:52.218Z,3.27
2018-07-17T03:08:20.095Z,3.10
2018-07-17T03:10:47.916Z,3.10
2018-07-17T03:13:16.459Z,3.50
2018-07-17T03:15:44.595Z,2.90
2018-07-17T03:18:12.120Z,4.90
2018-07-17T03:20:40.310Z,6.10
2018-07-17T03:23:07.883Z,5.40
2018-07-17T03:25:35.396Z,4.90
2018-07-17T03:28:02.972Z,4.70
2018-07-17T03:30:31.207Z,4.77
2018-07-17T03:32:58.705Z,5.83
2018-07-17T03:35:26.223Z,4.47
2018-07-17T03:37:54.036Z,4.37
2018-07-17T03:40:21.892Z,4.13
2018-07-17T03:42:50.108Z,3.50
2018-07-17T03:45:18.156Z,3.67
2018-07-17T03:47:45.667Z,4.80
2018-07-17T03:50:13.580Z,6.20
2018-07-17T03:52:41.646Z,6.27
2018-07-17T03:55:09.528Z,4.70
2018-07-17T03:57:37.053Z,3.17
2018-07-17T04:00:05.268Z,3.50
2018-07-17T04:02:32.711Z,3.40
2018-07-17T04:05:00.217Z,3.27
2018-07-17T04:07:28.260Z,4.80
2018-07-17T04:09:56.471Z,4.10
2018-07-17T04:12:24.425Z,4.27
2018-07-17T04:14:51.932Z,3.77
2018-07-17T04:17:19.448Z,3.10
2018-07-17T04:19:47.303Z,3.43
2018-07-17T04:22:14.808Z,3.40
2018-07-17T04:24:42.676Z,3.10
2018-07-17T04:27:10.212Z,3.50
2018-07-17T04:29:37.748Z,5.07
2018-07-17T04:32:05.732Z,4.80
2018-07-17T04:34:33.269Z,4.80
2018-07-17T04:37:00.775Z,4.80
2018-07-17T04:39:28.894Z,3.53
2018-07-17T04:41:56.766Z,2.70
2018-07-17T04:44:24.799Z,2.93
2018-07-17T04:46:52.792Z,2.87
2018-07-17T04:49:21.517Z,2.77
2018-07-17T04:51:50.463Z,4.60
2018-07-17T04:54:18.431Z,5.27
2018-07-17T04:56:46.509Z,3.63
2018-07-17T04:59:14.796Z,3.63
2018-07-17T05:01:42.864Z,4.50
2018-07-17T05:04:10.840Z,3.23
2018-07-17T05:06:39.014Z,3.67
2018-07-17T05:09:07.913Z,4.77
2018-07-17T05:11:36.398Z,4.40
2018-07-17T05:14:04.479Z,4.03
2018-07-17T05:16:32.097Z,9.20
2018-07-17T05:19:00.009Z,11.47
2018-07-17T05:21:27.539Z,5.00
2018-07-17T05:23:55.400Z,4.40
2018-07-17T05:26:22.940Z,3.70
2018-07-17T05:28:50.477Z,3.97
2018-07-17T05:31:18.454Z,4.30
2018-07-17T05:33:45.882Z,4.37
2018-07-17T05:36:13.772Z,3.70
2018-07-17T05:38:41.376Z,5.30
2018-07-17T05:41:09.195Z,3.53
2018-07-17T05:43:37.122Z,3.63
2018-07-17T05:46:05.025Z,6.13
2018-07-17T05:48:32.607Z,4.57
2018-07-17T05:51:00.175Z,4.00
2018-07-17T05:53:28.247Z,13.20
2018-07-17T05:55:55.856Z,10.00
2018-07-17T05:58:23.388Z,7.20
2018-07-17T06:00:51.807Z,7.30
2018-07-17T06:03:19.684Z,8.43
2018-07-17T06:05:47.623Z,6.23
2018-07-17T06:08:16.275Z,6.90
2018-07-17T06:10:43.759Z,14.67
2018-07-17T06:13:11.660Z,29.40
2018-07-17T06:15:39.147Z,17.37
2018-07-17T06:18:06.627Z,8.17
2018-07-17T06:20:34.677Z,5.00
2018-07-17T06:23:02.193Z,4.53
2018-07-17T06:25:29.702Z,4.30
2018-07-17T06:27:57.270Z,3.90
2018-07-17T06:30:25.286Z,4.40
2018-07-17T06:32:53.337Z,4.03
2018-07-17T06:35:21.601Z,4.40
2018-07-17T06:37:49.564Z,4.40
2018-07-17T06:40:17.451Z,5.60
2018-07-17T06:42:45.395Z,4.30
2018-07-17T06:45:14.084Z,5.00
2018-07-17T06:47:41.699Z,4.53
2018-07-17T06:50:09.386Z,4.70
2018-07-17T06:52:36.855Z,4.43
2018-07-17T06:55:04.828Z,3.63
2018-07-17T06:57:32.689Z,4.20
2018-07-17T07:00:00.801Z,3.50
2018-07-17T07:02:28.372Z,4.63
2018-07-17T07:04:56.255Z,3.63
2018-07-17T07:07:24.418Z,3.40
2018-07-17T07:09:51.915Z,3.87
2018-07-17T07:12:19.795Z,4.30
2018-07-17T07:14:47.331Z,3.83
2018-07-17T07:17:14.883Z,4.43
2018-07-17T07:19:42.955Z,3.80
2018-07-17T07:22:10.845Z,3.30
2018-07-17T07:24:38.708Z,4.00
2018-07-17T07:27:06.240Z,3.70
2018-07-17T07:29:33.754Z,4.20
2018-07-17T07:32:01.636Z,5.00
2018-07-17T07:34:29.148Z,6.17
2018-07-17T07:36:56.581Z,4.40
2018-07-17T07:39:24.777Z,4.37
2018-07-17T07:41:52.596Z,3.93
2018-07-17T07:44:21.045Z,4.17
2018-07-17T07:46:48.935Z,3.53
2018-07-17T07:49:16.662Z,3.50
2018-07-17T07:51:44.195Z,3.27
2018-07-17T07:54:11.739Z,4.23
2018-07-17T07:56:39.636Z,4.30
2018-07-17T07:59:07.547Z,3.70
2018-07-17T08:01:35.350Z,3.97
2018-07-17T08:04:03.029Z,4.53
2018-07-17T08:06:32.125Z,4.20
2018-07-17T08:09:00.293Z,4.13
2018-07-17T08:11:28.365Z,3.73
2018-07-17T08:13:56.417Z,4.33
2018-07-17T08:16:24.006Z,3.67
2018-07-17T08:18:52.084Z,4.00
2018-07-17T08:21:19.526Z,4.30
2018-07-17T08:23:47.031Z,4.20
2018-07-17T08:26:14.696Z,3.30
2018-07-17T08:28:42.591Z,4.27
2018-07-17T08:31:10.524Z,3.10
2018-07-17T08:33:38.596Z,4.30
2018-07-17T08:36:06.543Z,3.80
2018-07-17T08:38:34.438Z,3.77
2018-07-17T08:41:01.940Z,3.07
2018-07-17T08:43:29.936Z,3.87
2018-07-17T08:45:58.052Z,4.10
2018-07-17T08:48:25.967Z,4.23
2018-07-17T08:50:54.088Z,3.47
2018-07-17T08:53:21.897Z,3.97
2018-07-17T08:55:49.756Z,3.50
2018-07-17T08:58:17.628Z,3.50
2018-07-17T09:00:45.499Z,4.30
2018-07-17T09:03:13.479Z,3.70
2018-07-17T09:05:41.004Z,4.07
2018-07-17T09:08:08.980Z,3.97
2018-07-17T09:10:37.072Z,3.60
2018-07-17T09:13:05.399Z,4.23
2018-07-17T09:15:33.340Z,4.47
2018-07-17T09:18:00.900Z,4.07
2018-07-17T09:20:29.468Z,3.70
2018-07-17T09:22:56.952Z,4.00
2018-07-17T09:25:24.548Z,4.30
2018-07-17T09:27:52.526Z,4.00
2018-07-17T09:30:20.573Z,3.77
2018-07-17T09:32:48.060Z,4.10
2018-07-17T09:35:15.964Z,4.27
2018-07-17T09:37:43.487Z,3.80
2018-07-17T09:40:12.172Z,3.80
2018-07-17T09:42:39.760Z,4.50
2018-07-17T09:45:07.991Z,3.57
2018-07-17T09:47:35.520Z,3.60
2018-07-17T09:50:03.119Z,5.27
2018-07-17T09:52:31.599Z,4.40
2018-07-17T09:54:59.332Z,5.00
2018-07-17T09:57:28.188Z,4.87
2018-07-17T09:59:56.635Z,4.60
2018-07-17T10:02:27.738Z,3.90
2018-07-17T10:04:56.222Z,4.33
2018-07-17T10:07:24.488Z,4.03
2018-07-17T10:09:52.642Z,4.90
2018-07-17T10:12:20.800Z,5.33
2018-07-17T10:14:48.318Z,4.40
2018-07-17T10:17:15.849Z,5.60
2018-07-17T10:19:43.695Z,4.60
2018-07-17T10:22:11.220Z,5.20
2018-07-17T10:24:39.070Z,4.97
2018-07-17T10:27:06.593Z,5.73
2018-07-17T10:29:34.492Z,4.10
2018-07-17T10:32:02.451Z,5.20
2018-07-17T10:34:30.423Z,4.77
2018-07-17T10:36:57.959Z,4.33
2018-07-17T10:39:26.079Z,4.97
2018-07-17T10:41:53.583Z,4.67
2018-07-17T10:44:21.642Z,4.80
2018-07-17T10:46:49.215Z,4.87
2018-07-17T10:49:18.367Z,5.00
2018-07-17T10:51:46.437Z,4.87
2018-07-17T10:54:14.424Z,4.97
2018-07-17T10:56:41.875Z,5.30
2018-07-17T10:59:10.367Z,9.10
2018-07-17T11:01:37.903Z,3.57
2018-07-17T11:04:05.690Z,3.60
2018-07-17T11:06:33.282Z,3.43
2018-07-17T11:09:01.094Z,5.03
2018-07-17T11:11:29.020Z,5.33
2018-07-17T11:13:56.980Z,3.27
2018-07-17T11:16:25.271Z,3.90
2018-07-17T11:18:53.233Z,3.43
2018-07-17T11:21:21.383Z,3.60
2018-07-17T11:23:48.885Z,3.47
2018-07-17T11:26:16.383Z,3.20
2018-07-17T11:28:44.612Z,4.40
2018-07-17T11:31:12.628Z,4.20
2018-07-17T11:33:40.400Z,4.40
2018-07-17T11:36:08.000Z,3.90
2018-07-17T11:38:36.029Z,4.27
2018-07-17T11:41:03.514Z,5.67
2018-07-17T11:43:31.450Z,4.63
2018-07-17T11:45:59.523Z,5.40
2018-07-17T11:48:27.420Z,5.10
2018-07-17T11:50:55.681Z,6.50
2018-07-17T11:53:23.702Z,5.50
2018-07-17T11:55:51.681Z,4.57
2018-07-17T11:58:19.707Z,4.93
2018-07-17T12:00:47.603Z,4.50
2018-07-17T12:03:15.724Z,4.57
2018-07-17T12:05:43.662Z,5.60
2018-07-17T12:08:11.621Z,4.90
2018-07-17T12:10:39.555Z,5.60
2018-07-17T12:13:07.531Z,4.80
2018-07-17T12:15:35.487Z,5.07
2018-07-17T12:18:03.476Z,5.07
2018-07-17T12:20:31.540Z,4.40
2018-07-17T12:22:58.933Z,5.27
2018-07-17T12:25:26.478Z,4.60
2018-07-17T12:27:54.108Z,5.07
2018-07-17T12:30:22.325Z,4.20
2018-07-17T12:32:49.835Z,5.97
2018-07-17T12:35:17.399Z,3.77
2018-07-17T12:37:44.949Z,4.33
2018-07-17T12:40:12.460Z,3.60
2018-07-17T12:42:40.052Z,4.33
2018-07-17T12:45:08.011Z,4.23
2018-07-17T12:47:35.507Z,4.33
2018-07-17T12:50:04.060Z,4.07
2018-07-17T12:52:31.588Z,4.27
2018-07-17T12:54:59.139Z,3.97
2018-07-17T12:57:27.254Z,4.70
2018-07-17T12:59:54.797Z,4.60
2018-07-17T13:02:22.451Z,5.57
2018-07-17T13:04:49.999Z,4.83
2018-07-17T13:07:17.828Z,5.10
2018-07-17T13:09:45.989Z,5.10
2018-07-17T13:12:14.186Z,4.97
2018-07-17T13:14:42.235Z,3.90
2018-07-17T13:17:10.392Z,4.00
2018-07-17T13:19:38.347Z,3.77
2018-07-17T13:22:05.960Z,4.03
2018-07-17T13:24:33.886Z,4.57
2018-07-17T13:27:01.831Z,4.40
2018-07-17T13:29:29.690Z,3.50
2018-07-17T13:31:57.987Z,3.53
2018-07-17T13:34:25.506Z,3.77
2018-07-17T13:36:53.089Z,3.50
2018-07-17T13:39:21.525Z,3.57
2018-07-17T13:41:49.711Z,3.90
2018-07-17T13:44:18.230Z,3.00
2018-07-17T13:46:46.230Z,3.33
2018-07-17T13:49:14.211Z,2.90
2018-07-17T13:51:41.759Z,3.17
2018-07-17T13:54:09.244Z,3.27
2018-07-17T13:56:36.887Z,3.07
2018-07-17T13:59:04.871Z,3.10
2018-07-17T14:01:32.398Z,3.47
2018-07-17T14:04:00.283Z,3.30
2018-07-17T14:06:27.964Z,3.27
2018-07-17T14:08:55.881Z,2.83
2018-07-17T14:11:23.463Z,2.70
2018-07-17T14:13:51.412Z,3.47
2018-07-17T14:16:18.995Z,2.87
2018-07-17T14:18:47.077Z,2.70
2018-07-17T14:21:15.762Z,2.87
2018-07-17T14:23:44.023Z,2.67
2018-07-17T14:26:11.573Z,2.90
2018-07-17T14:28:39.077Z,2.80
2018-07-17T14:31:07.164Z,2.40
2018-07-17T14:33:35.516Z,2.80
2018-07-17T14:36:03.080Z,2.57
2018-07-17T14:38:30.631Z,2.30
2018-07-17T14:40:59.856Z,3.10
2018-07-17T14:43:27.730Z,2.87
2018-07-17T14:45:55.660Z,2.60
2018-07-17T14:48:23.670Z,2.60
2018-07-17T14:50:51.184Z,2.07
2018-07-17T14:53:19.416Z,2.63
2018-07-17T14:55:47.284Z,3.03
2018-07-17T14:58:15.164Z,3.13
2018-07-17T15:00:43.910Z,2.80
2018-07-17T15:03:11.718Z,3.07
2018-07-17T15:05:39.232Z,3.07
2018-07-17T15:08:07.047Z,2.60
2018-07-17T15:10:34.560Z,2.40
2018-07-17T15:13:02.405Z,3.40
2018-07-17T15:15:29.961Z,3.60
2018-07-17T15:17:58.412Z,3.23
2018-07-17T15:20:26.370Z,2.93
2018-07-17T15:22:54.223Z,2.90
2018-07-17T15:25:21.788Z,3.10
2018-07-17T15:27:49.343Z,2.90
2018-07-17T15:30:17.656Z,3.30
2018-07-17T15:32:45.158Z,3.67
2018-07-17T15:35:12.743Z,2.80
2018-07-17T15:37:40.852Z,3.50
2018-07-17T15:40:09.091Z,3.10
2018-07-17T15:42:37.325Z,3.20
2018-07-17T15:45:05.490Z,3.03
2018-07-17T15:47:33.377Z,3.60
2018-07-17T15:50:01.986Z,3.43
2018-07-17T15:52:30.054Z,3.30
2018-07-17T15:54:57.556Z,2.80
2018-07-17T15:57:25.690Z,3.07
2018-07-17T15:59:53.555Z,3.37
2018-07-17T16:02:21.567Z,3.40
2018-07-17T16:04:49.448Z,3.50
2018-07-17T16:07:16.951Z,3.60
2018-07-17T16:09:44.869Z,3.20
2018-07-17T16:12:13.828Z,3.80
2018-07-17T16:14:41.755Z,3.20
2018-07-17T16:17:09.316Z,3.30
2018-07-17T16:19:37.503Z,3.17
2018-07-17T16:22:05.542Z,3.50
2018-07-17T16:24:33.032Z,3.30
2018-07-17T16:27:00.579Z,3.23
2018-07-17T16:29:28.152Z,2.90
2018-07-17T16:31:56.888Z,3.03
2018-07-17T16:34:24.517Z,3.23
2018-07-17T16:36:53.100Z,2.73
2018-07-17T16:39:20.615Z,2.50
2018-07-17T16:41:48.563Z,3.17
2018-07-17T16:44:16.411Z,2.93
2018-07-17T16:46:43.898Z,2.87
2018-07-17T16:49:12.876Z,3.13
2018-07-17T16:51:40.386Z,2.97
2018-07-17T16:54:07.999Z,3.37
2018-07-17T16:56:36.328Z,2.53
2018-07-17T16:59:04.298Z,2.97
2018-07-17T17:01:31.749Z,4.20
2018-07-17T17:03:59.787Z,4.13
2018-07-17T17:06:29.034Z,2.97
2018-07-17T17:08:57.267Z,2.80
2018-07-17T17:11:24.782Z,3.70
2018-07-17T17:13:52.831Z,2.87
2018-07-17T17:16:21.655Z,3.27
2018-07-17T17:18:50.234Z,3.70
2018-07-17T17:21:17.924Z,3.27
2018-07-17T17:23:45.512Z,4.00
2018-07-17T17:26:12.935Z,3.87
2018-07-17T17:28:40.799Z,3.83
2018-07-17T17:31:09.231Z,3.70
2018-07-17T17:33:37.261Z,4.13
2018-07-17T17:36:04.775Z,4.07
2018-07-17T17:38:33.461Z,3.90
2018-07-17T17:41:01.690Z,3.30
2018-07-17T17:43:29.578Z,3.30
2018-07-17T17:45:57.093Z,3.40
2018-07-17T17:48:24.614Z,3.10
2018-07-17T17:50:52.154Z,3.57
2018-07-17T17:53:20.127Z,3.00
2018-07-17T17:55:47.674Z,3.17
2018-07-17T17:58:15.659Z,3.50
2018-07-17T18:00:43.534Z,4.03
2018-07-17T18:03:11.072Z,3.30
2018-07-17T18:05:38.982Z,3.53
2018-07-17T18:08:06.923Z,3.73
2018-07-17T18:10:34.416Z,3.50
2018-07-17T18:13:03.000Z,3.80
2018-07-17T18:15:31.310Z,3.50
2018-07-17T18:17:58.837Z,3.83
2018-07-17T18:20:27.081Z,4.07
2018-07-17T18:22:54.598Z,4.00
2018-07-17T18:25:22.135Z,3.60
2018-07-17T18:27:50.082Z,3.40
2018-07-17T18:30:18.005Z,2.70
2018-07-17T18:32:45.564Z,3.57
2018-07-17T18:35:13.458Z,3.10
2018-07-17T18:37:41.550Z,3.67
2018-07-17T18:40:09.188Z,3.27
2018-07-17T18:42:37.256Z,3.20
2018-07-17T18:45:05.197Z,3.57
2018-07-17T18:47:33.804Z,3.40
2018-07-17T18:50:12.583Z,3.50
2018-07-17T18:52:29.589Z,4.30
2018-07-17T18:54:57.892Z,4.43
2018-07-17T18:57:25.868Z,4.03
2018-07-17T18:59:53.485Z,3.17
2018-07-17T19:02:22.104Z,3.47
2018-07-17T19:04:50.297Z,3.87
2018-07-17T19:07:18.353Z,4.17
2018-07-17T19:09:47.846Z,3.80
2018-07-17T19:12:16.414Z,3.20
2018-07-17T19:14:44.770Z,3.63
2018-07-17T19:17:12.602Z,4.50
2018-07-17T19:19:41.188Z,4.20
2018-07-17T19:22:09.457Z,4.33
2018-07-17T19:24:37.739Z,4.60
2018-07-17T19:27:05.640Z,3.60
2018-07-17T19:29:34.779Z,3.00
2018-07-17T19:32:03.292Z,2.80
2018-07-17T19:34:31.835Z,3.40
2018-07-17T19:37:00.393Z,3.73
2018-07-17T19:39:28.537Z,3.03
2018-07-17T19:41:57.070Z,3.80
2018-07-17T19:44:25.594Z,3.50
2018-07-17T19:46:53.841Z,3.00
2018-07-17T19:49:21.860Z,4.00
2018-07-17T19:51:50.372Z,3.97
2018-07-17T19:54:18.730Z,4.00
2018-07-17T19:56:46.934Z,3.20
2018-07-17T19:59:15.429Z,3.50
2018-07-17T20:01:43.476Z,4.87
2018-07-17T20:04:11.679Z,3.50
2018-07-17T20:06:40.037Z,3.53
2018-07-17T20:09:09.601Z,3.37
2018-07-17T20:11:37.950Z,4.30
2018-07-17T20:14:06.550Z,3.90
2018-07-17T20:16:34.273Z,5.17
2018-07-17T20:19:02.686Z,5.07
2018-07-17T20:21:30.812Z,4.07
2018-07-17T20:23:58.704Z,4.90
2018-07-17T20:26:27.068Z,5.00
2018-07-17T20:28:55.143Z,5.53
2018-07-17T20:31:23.127Z,4.57
2018-07-17T20:33:50.660Z,4.20
2018-07-17T20:36:18.604Z,4.70
2018-07-17T20:38:46.365Z,4.10
2018-07-17T20:41:14.620Z,4.60
2018-07-17T20:43:43.065Z,4.80
2018-07-17T20:46:11.380Z,4.33
2018-07-17T20:48:39.858Z,4.80
2018-07-17T20:51:08.782Z,4.03
2018-07-17T20:53:36.951Z,4.40
2018-07-17T20:56:04.852Z,4.33
2018-07-17T20:58:33.252Z,3.57
2018-07-17T21:01:01.738Z,4.57
2018-07-17T21:03:29.396Z,4.20
2018-07-17T21:05:57.878Z,4.60
2018-07-17T21:08:25.954Z,4.53
2018-07-17T21:10:54.274Z,3.90
2018-07-17T21:13:22.518Z,5.17
2018-07-17T21:15:50.279Z,5.50
2018-07-17T21:18:18.085Z,5.10
2018-07-17T21:20:46.339Z,5.03
2018-07-17T21:23:14.705Z,4.13
2018-07-17T21:25:42.532Z,4.30
2018-07-17T21:28:11.486Z,6.47
2018-07-17T21:30:39.779Z,5.77
2018-07-17T21:33:07.553Z,4.50
2018-07-17T21:35:35.948Z,4.00
2018-07-17T21:38:05.062Z,3.70
2018-07-17T21:40:33.428Z,4.27
2018-07-17T21:43:01.635Z,4.27
2018-07-17T21:45:30.034Z,4.30
2018-07-17T21:47:59.033Z,4.90
2018-07-17T21:50:26.724Z,4.13
2018-07-17T21:52:55.937Z,3.97
2018-07-17T21:55:24.357Z,4.30
2018-07-17T21:57:52.513Z,5.07
2018-07-17T22:00:20.516Z,4.33
2018-07-17T22:02:48.281Z,4.00
2018-07-17T22:05:16.448Z,4.43
2018-07-17T22:07:45.202Z,5.73
2018-07-17T22:10:13.102Z,4.80
2018-07-17T22:12:41.150Z,4.50
2018-07-17T22:15:09.378Z,4.90
2018-07-17T22:17:38.269Z,5.07
2018-07-17T22:20:06.314Z,4.20
2018-07-17T22:22:34.794Z,3.90
2018-07-17T22:25:03.163Z,4.33
2018-07-17T22:27:31.032Z,3.43
2018-07-17T22:29:59.285Z,5.10
2018-07-17T22:32:27.192Z,4.40
2018-07-17T22:34:54.739Z,4.80
2018-07-17T22:37:22.263Z,3.90
2018-07-17T22:39:50.260Z,4.00
2018-07-17T22:42:17.784Z,4.20
2018-07-17T22:44:46.300Z,4.00
2018-07-17T22:47:13.997Z,4.03
2018-07-17T22:49:41.500Z,4.20
2018-07-17T22:52:09.727Z,5.00
2018-07-17T22:54:37.239Z,4.40
2018-07-17T22:57:05.572Z,5.70
2018-07-17T22:59:33.108Z,4.40
2018-07-17T23:02:01.483Z,4.50
2018-07-17T23:04:28.940Z,3.93
2018-07-17T23:06:56.439Z,3.90
2018-07-17T23:09:25.871Z,3.83
2018-07-17T23:11:53.383Z,3.60
2018-07-17T23:14:21.215Z,3.83
2018-07-17T23:16:48.724Z,4.83
2018-07-17T23:19:16.931Z,4.00
2018-07-17T23:21:44.375Z,4.97
2018-07-17T23:24:12.532Z,4.20
2018-07-17T23:26:40.077Z,6.10
2018-07-17T23:29:08.127Z,5.20
2018-07-17T23:31:36.016Z,4.30
2018-07-17T23:34:04.453Z,5.20
2018-07-17T23:36:32.428Z,3.60
2018-07-17T23:39:00.189Z,4.30
2018-07-17T23:41:27.680Z,4.57
2018-07-17T23:43:55.525Z,4.23
2018-07-17T23:46:23.403Z,4.83
2018-07-17T23:48:50.935Z,4.67
2018-07-17T23:51:18.784Z,4.20
2018-07-17T23:53:46.640Z,5.70
2018-07-17T23:56:14.231Z,5.40
2018-07-17T23:58:42.557Z,5.53
